Estación Meteorológica Peña el Pijo (Robertgarden) [ 02/03/23 02:50:52 CET ]

Fecha Hora Presion(HPa) Temp (°C) Humedad % Rocio (°C) Viento ( m/s) Direccion Lluvia 1Hora(mm) Lluvia 24H(mm) LLuvia Total(mm)
2012-May-02 01:01:12 1007.300 5.4 72 0.8         158.50
2012-May-02 02:01:12 1007.400 4.9 73 0.4         158.50
2012-May-02 03:03:36 1007.100 3.6 76 -0.2         158.50
2012-May-02 04:01:12 1007.300 3.9 79 0.6         158.50
2012-May-02 05:01:12 1007.200 3.0 79 -0.3         158.50
2012-May-02 06:01:19 1007.300 1.8 82 -1.0         158.50
2012-May-02 07:01:17 1007.300 1.5 85 -0.8         158.50
2012-May-02 08:01:14 1007.600 2.5 87 0.5         158.50
2012-May-02 09:01:14 1007.700 8.8 75 4.6         158.50
2012-May-02 10:01:18 1008.000 12.8 58 4.7         158.50
2012-May-02 11:01:14 1007.800 15.4 44 3.1         158.50
2012-May-02 12:01:20 1007.800 16.4 41 3.1 0.6 WNW     158.50
2012-May-02 13:01:13 1007.600 20.0 35 4.0         158.50
2012-May-02 14:01:16 1007.100 19.9 31 2.2 1.3 SW     158.50
2012-May-02 15:01:17 1006.900 21.3 26 0.8         158.50
2012-May-02 16:01:16 1006.400 22.1 25 0.9         158.50
2012-May-02 17:01:19 1006.200 22.1 28 2.6 1.7 NNW     158.50
2012-May-02 18:01:13 1006.000 19.8 30 1.7         158.50
2012-May-02 19:01:16 1006.300 17.4 34 1.3 2.0 N     158.50
2012-May-02 20:01:18 1006.900 15.4 41 2.2         158.50
2012-May-02 21:01:16 1007.300 13.9 49 3.4 1.8 NE     158.50
2012-May-02 22:01:13 1007.800 12.6 52 3.0         158.50
2012-May-02 23:01:12 1008.300 10.8 56 2.3         158.50

Temperatura Máxima:22°    Temperatura Mínima:
Presión Máxima:1008.300 Hpa    Presión Mínima:1006.000 Hpa


Volver